sensor_id;sensor_type;location;lat;lon;timestamp;P1;durP1;ratioP1;P2;durP2;ratioP2
7108;SDS011;29079;41.930;25.558;2022-07-23T00:01:43;6.28;;;5.05;;
7108;SDS011;29079;41.930;25.558;2022-07-23T00:04:13;9.20;;;5.35;;
7108;SDS011;29079;41.930;25.558;2022-07-23T00:06:44;11.75;;;5.47;;
7108;SDS011;29079;41.930;25.558;2022-07-23T00:09:14;7.82;;;5.25;;
7108;SDS011;29079;41.930;25.558;2022-07-23T00:11:45;6.88;;;4.85;;
7108;SDS011;29079;41.930;25.558;2022-07-23T00:14:15;7.68;;;5.40;;
7108;SDS011;29079;41.930;25.558;2022-07-23T00:16:45;9.75;;;5.03;;
7108;SDS011;29079;41.930;25.558;2022-07-23T00:19:15;7.22;;;4.88;;
7108;SDS011;29079;41.930;25.558;2022-07-23T00:21:47;8.48;;;4.60;;
7108;SDS011;29079;41.930;25.558;2022-07-23T00:24:17;6.25;;;5.63;;
7108;SDS011;29079;41.930;25.558;2022-07-23T00:26:47;6.65;;;5.22;;
7108;SDS011;29079;41.930;25.558;2022-07-23T00:29:17;6.88;;;5.03;;
7108;SDS011;29079;41.930;25.558;2022-07-23T00:31:47;8.68;;;5.72;;
7108;SDS011;29079;41.930;25.558;2022-07-23T00:34:18;11.95;;;5.85;;
7108;SDS011;29079;41.930;25.558;2022-07-23T00:36:49;9.93;;;5.60;;
7108;SDS011;29079;41.930;25.558;2022-07-23T00:39:22;10.35;;;5.00;;
7108;SDS011;29079;41.930;25.558;2022-07-23T00:41:52;13.77;;;5.90;;
7108;SDS011;29079;41.930;25.558;2022-07-23T00:44:24;7.80;;;5.32;;
7108;SDS011;29079;41.930;25.558;2022-07-23T00:46:56;7.97;;;5.07;;
7108;SDS011;29079;41.930;25.558;2022-07-23T00:49:27;14.95;;;5.70;;
7108;SDS011;29079;41.930;25.558;2022-07-23T00:52:00;11.90;;;5.20;;
7108;SDS011;29079;41.930;25.558;2022-07-23T00:54:31;11.70;;;6.45;;
7108;SDS011;29079;41.930;25.558;2022-07-23T00:57:02;13.57;;;6.28;;
7108;SDS011;29079;41.930;25.558;2022-07-23T00:59:32;10.88;;;5.57;;
7108;SDS011;29079;41.930;25.558;2022-07-23T01:02:03;15.20;;;6.25;;
7108;SDS011;29079;41.930;25.558;2022-07-23T01:04:33;16.92;;;5.30;;
7108;SDS011;29079;41.930;25.558;2022-07-23T01:07:04;12.23;;;6.00;;
7108;SDS011;29079;41.930;25.558;2022-07-23T01:09:34;9.32;;;5.05;;
7108;SDS011;29079;41.930;25.558;2022-07-23T01:12:06;9.00;;;5.53;;
7108;SDS011;29079;41.930;25.558;2022-07-23T01:14:37;11.52;;;5.68;;
7108;SDS011;29079;41.930;25.558;2022-07-23T01:17:07;11.63;;;6.05;;
7108;SDS011;29079;41.930;25.558;2022-07-23T01:19:38;9.40;;;6.18;;
7108;SDS011;29079;41.930;25.558;2022-07-23T01:22:10;8.30;;;6.18;;
7108;SDS011;29079;41.930;25.558;2022-07-23T01:24:41;12.80;;;6.90;;
7108;SDS011;29079;41.930;25.558;2022-07-23T01:27:11;10.18;;;6.20;;
7108;SDS011;29079;41.930;25.558;2022-07-23T01:29:42;12.07;;;6.70;;
7108;SDS011;29079;41.930;25.558;2022-07-23T01:32:11;9.25;;;5.90;;
7108;SDS011;29079;41.930;25.558;2022-07-23T01:34:41;9.07;;;5.60;;
7108;SDS011;29079;41.930;25.558;2022-07-23T01:37:11;8.75;;;6.15;;
7108;SDS011;29079;41.930;25.558;2022-07-23T01:39:43;9.75;;;5.80;;
7108;SDS011;29079;41.930;25.558;2022-07-23T01:42:13;9.85;;;5.22;;
7108;SDS011;29079;41.930;25.558;2022-07-23T01:44:45;11.82;;;5.53;;
7108;SDS011;29079;41.930;25.558;2022-07-23T01:47:14;9.43;;;5.03;;
7108;SDS011;29079;41.930;25.558;2022-07-23T01:49:45;11.88;;;6.10;;
7108;SDS011;29079;41.930;25.558;2022-07-23T01:52:15;10.38;;;6.28;;
7108;SDS011;29079;41.930;25.558;2022-07-23T01:54:46;12.70;;;6.95;;
7108;SDS011;29079;41.930;25.558;2022-07-23T01:57:16;7.78;;;5.90;;
7108;SDS011;29079;41.930;25.558;2022-07-23T01:59:46;10.10;;;5.65;;
7108;SDS011;29079;41.930;25.558;2022-07-23T02:02:16;10.85;;;5.90;;
7108;SDS011;29079;41.930;25.558;2022-07-23T02:04:47;12.40;;;5.18;;
7108;SDS011;29079;41.930;25.558;2022-07-23T02:07:16;8.80;;;5.95;;
7108;SDS011;29079;41.930;25.558;2022-07-23T02:09:48;11.15;;;5.55;;
7108;SDS011;29079;41.930;25.558;2022-07-23T02:12:18;10.00;;;6.43;;
7108;SDS011;29079;41.930;25.558;2022-07-23T02:14:48;9.25;;;5.82;;
7108;SDS011;29079;41.930;25.558;2022-07-23T02:17:20;9.48;;;6.05;;
7108;SDS011;29079;41.930;25.558;2022-07-23T02:19:50;7.82;;;5.60;;
7108;SDS011;29079;41.930;25.558;2022-07-23T02:22:20;7.70;;;5.65;;
7108;SDS011;29079;41.930;25.558;2022-07-23T02:24:51;9.98;;;5.90;;
7108;SDS011;29079;41.930;25.558;2022-07-23T02:27:21;7.72;;;5.18;;
7108;SDS011;29079;41.930;25.558;2022-07-23T02:29:51;8.35;;;5.13;;
7108;SDS011;29079;41.930;25.558;2022-07-23T02:32:21;8.45;;;5.32;;
7108;SDS011;29079;41.930;25.558;2022-07-23T02:34:51;6.97;;;5.20;;
7108;SDS011;29079;41.930;25.558;2022-07-23T02:37:21;8.85;;;5.43;;
7108;SDS011;29079;41.930;25.558;2022-07-23T02:39:52;9.20;;;6.85;;
7108;SDS011;29079;41.930;25.558;2022-07-23T02:42:22;10.57;;;5.80;;
7108;SDS011;29079;41.930;25.558;2022-07-23T02:44:52;13.75;;;5.93;;
7108;SDS011;29079;41.930;25.558;2022-07-23T02:47:22;9.63;;;5.70;;
7108;SDS011;29079;41.930;25.558;2022-07-23T02:49:52;12.63;;;5.40;;
7108;SDS011;29079;41.930;25.558;2022-07-23T02:52:22;9.75;;;4.93;;
7108;SDS011;29079;41.930;25.558;2022-07-23T02:54:53;9.35;;;4.80;;
7108;SDS011;29079;41.930;25.558;2022-07-23T02:57:23;13.98;;;5.43;;
7108;SDS011;29079;41.930;25.558;2022-07-23T02:59:53;7.97;;;4.90;;
7108;SDS011;29079;41.930;25.558;2022-07-23T03:02:23;11.10;;;5.47;;
7108;SDS011;29079;41.930;25.558;2022-07-23T03:04:54;11.20;;;5.10;;
7108;SDS011;29079;41.930;25.558;2022-07-23T03:07:24;6.82;;;4.70;;
7108;SDS011;29079;41.930;25.558;2022-07-23T03:09:56;8.00;;;5.28;;
7108;SDS011;29079;41.930;25.558;2022-07-23T03:12:26;10.85;;;4.95;;
7108;SDS011;29079;41.930;25.558;2022-07-23T03:14:57;7.30;;;4.78;;
7108;SDS011;29079;41.930;25.558;2022-07-23T03:17:27;9.68;;;5.07;;
7108;SDS011;29079;41.930;25.558;2022-07-23T03:19:57;11.25;;;5.32;;
7108;SDS011;29079;41.930;25.558;2022-07-23T03:22:27;6.40;;;5.45;;
7108;SDS011;29079;41.930;25.558;2022-07-23T03:24:59;6.78;;;4.90;;
7108;SDS011;29079;41.930;25.558;2022-07-23T03:27:29;7.07;;;5.13;;
7108;SDS011;29079;41.930;25.558;2022-07-23T03:30:00;11.15;;;5.15;;
7108;SDS011;29079;41.930;25.558;2022-07-23T03:32:30;7.68;;;4.85;;
7108;SDS011;29079;41.930;25.558;2022-07-23T03:35:00;8.30;;;4.90;;
7108;SDS011;29079;41.930;25.558;2022-07-23T03:37:34;9.07;;;5.32;;
7108;SDS011;29079;41.930;25.558;2022-07-23T03:40:07;11.25;;;5.15;;
7108;SDS011;29079;41.930;25.558;2022-07-23T03:42:37;6.18;;;4.43;;
7108;SDS011;29079;41.930;25.558;2022-07-23T03:45:10;8.68;;;5.00;;
7108;SDS011;29079;41.930;25.558;2022-07-23T03:47:40;11.65;;;5.57;;
7108;SDS011;29079;41.930;25.558;2022-07-23T03:50:11;5.72;;;5.05;;
7108;SDS011;29079;41.930;25.558;2022-07-23T03:52:41;6.57;;;5.18;;
7108;SDS011;29079;41.930;25.558;2022-07-23T03:55:12;12.18;;;4.47;;
7108;SDS011;29079;41.930;25.558;2022-07-23T03:57:43;7.20;;;4.75;;
7108;SDS011;29079;41.930;25.558;2022-07-23T04:00:13;10.60;;;5.15;;
7108;SDS011;29079;41.930;25.558;2022-07-23T04:02:43;7.80;;;4.90;;
7108;SDS011;29079;41.930;25.558;2022-07-23T04:05:13;7.80;;;4.88;;
7108;SDS011;29079;41.930;25.558;2022-07-23T04:07:43;10.00;;;5.55;;
7108;SDS011;29079;41.930;25.558;2022-07-23T04:10:15;6.55;;;4.90;;
7108;SDS011;29079;41.930;25.558;2022-07-23T04:12:45;6.40;;;5.40;;
7108;SDS011;29079;41.930;25.558;2022-07-23T04:15:16;7.45;;;5.80;;
7108;SDS011;29079;41.930;25.558;2022-07-23T04:17:46;9.15;;;5.97;;
7108;SDS011;29079;41.930;25.558;2022-07-23T04:20:16;8.30;;;5.80;;
7108;SDS011;29079;41.930;25.558;2022-07-23T04:22:46;16.38;;;6.68;;
7108;SDS011;29079;41.930;25.558;2022-07-23T04:25:18;18.63;;;6.63;;
7108;SDS011;29079;41.930;25.558;2022-07-23T04:27:48;10.65;;;6.32;;
7108;SDS011;29079;41.930;25.558;2022-07-23T04:30:18;8.95;;;6.40;;
7108;SDS011;29079;41.930;25.558;2022-07-23T04:32:48;7.65;;;6.00;;
7108;SDS011;29079;41.930;25.558;2022-07-23T04:35:18;11.32;;;5.95;;
7108;SDS011;29079;41.930;25.558;2022-07-23T04:37:48;13.20;;;6.53;;
7108;SDS011;29079;41.930;25.558;2022-07-23T04:40:19;22.33;;;6.85;;
7108;SDS011;29079;41.930;25.558;2022-07-23T04:42:50;8.15;;;5.93;;
7108;SDS011;29079;41.930;25.558;2022-07-23T04:45:20;16.80;;;6.93;;
7108;SDS011;29079;41.930;25.558;2022-07-23T04:47:51;14.05;;;6.75;;
7108;SDS011;29079;41.930;25.558;2022-07-23T04:50:21;11.13;;;7.40;;
7108;SDS011;29079;41.930;25.558;2022-07-23T04:52:52;16.65;;;7.70;;
7108;SDS011;29079;41.930;25.558;2022-07-23T04:55:24;10.85;;;7.65;;
7108;SDS011;29079;41.930;25.558;2022-07-23T04:57:54;17.58;;;7.80;;
7108;SDS011;29079;41.930;25.558;2022-07-23T05:00:24;10.05;;;7.28;;
7108;SDS011;29079;41.930;25.558;2022-07-23T05:02:54;11.45;;;8.02;;
7108;SDS011;29079;41.930;25.558;2022-07-23T05:05:24;12.85;;;7.45;;
7108;SDS011;29079;41.930;25.558;2022-07-23T05:07:54;14.13;;;8.10;;
7108;SDS011;29079;41.930;25.558;2022-07-23T05:10:25;14.73;;;7.22;;
7108;SDS011;29079;41.930;25.558;2022-07-23T05:12:56;14.02;;;8.32;;
7108;SDS011;29079;41.930;25.558;2022-07-23T05:15:26;24.83;;;9.65;;
7108;SDS011;29079;41.930;25.558;2022-07-23T05:17:57;12.95;;;8.50;;
7108;SDS011;29079;41.930;25.558;2022-07-23T05:20:27;20.25;;;9.88;;
7108;SDS011;29079;41.930;25.558;2022-07-23T05:22:57;19.25;;;9.40;;
7108;SDS011;29079;41.930;25.558;2022-07-23T05:25:28;24.30;;;10.23;;
7108;SDS011;29079;41.930;25.558;2022-07-23T05:27:58;17.10;;;9.55;;
7108;SDS011;29079;41.930;25.558;2022-07-23T05:30:28;16.58;;;11.35;;
7108;SDS011;29079;41.930;25.558;2022-07-23T05:32:58;14.15;;;10.15;;
7108;SDS011;29079;41.930;25.558;2022-07-23T05:35:28;19.98;;;11.52;;
7108;SDS011;29079;41.930;25.558;2022-07-23T05:37:58;30.75;;;11.18;;
7108;SDS011;29079;41.930;25.558;2022-07-23T05:40:30;18.48;;;9.98;;
7108;SDS011;29079;41.930;25.558;2022-07-23T05:43:01;23.17;;;9.68;;
7108;SDS011;29079;41.930;25.558;2022-07-23T05:45:31;17.55;;;9.52;;
7108;SDS011;29079;41.930;25.558;2022-07-23T05:48:01;15.43;;;9.20;;
7108;SDS011;29079;41.930;25.558;2022-07-23T05:50:31;14.13;;;8.02;;
7108;SDS011;29079;41.930;25.558;2022-07-23T05:53:01;18.70;;;9.77;;
7108;SDS011;29079;41.930;25.558;2022-07-23T05:55:33;12.20;;;8.88;;
7108;SDS011;29079;41.930;25.558;2022-07-23T05:58:03;13.30;;;9.25;;
7108;SDS011;29079;41.930;25.558;2022-07-23T06:00:33;15.90;;;9.85;;
7108;SDS011;29079;41.930;25.558;2022-07-23T06:03:03;17.20;;;9.27;;
7108;SDS011;29079;41.930;25.558;2022-07-23T06:05:33;17.23;;;9.80;;
7108;SDS011;29079;41.930;25.558;2022-07-23T06:08:03;15.00;;;9.80;;
7108;SDS011;29079;41.930;25.558;2022-07-23T06:10:35;13.05;;;9.63;;
7108;SDS011;29079;41.930;25.558;2022-07-23T06:13:05;15.10;;;9.52;;
7108;SDS011;29079;41.930;25.558;2022-07-23T06:15:35;28.52;;;10.45;;
7108;SDS011;29079;41.930;25.558;2022-07-23T06:18:05;27.27;;;12.15;;
7108;SDS011;29079;41.930;25.558;2022-07-23T06:20:35;24.95;;;11.07;;
7108;SDS011;29079;41.930;25.558;2022-07-23T06:23:05;20.95;;;10.70;;
7108;SDS011;29079;41.930;25.558;2022-07-23T06:25:36;9.57;;;8.35;;
7108;SDS011;29079;41.930;25.558;2022-07-23T06:28:06;13.07;;;8.98;;
7108;SDS011;29079;41.930;25.558;2022-07-23T06:30:36;14.05;;;9.27;;
7108;SDS011;29079;41.930;25.558;2022-07-23T06:33:06;16.25;;;8.85;;
7108;SDS011;29079;41.930;25.558;2022-07-23T06:35:36;17.90;;;8.55;;
7108;SDS011;29079;41.930;25.558;2022-07-23T06:38:06;14.13;;;8.70;;
7108;SDS011;29079;41.930;25.558;2022-07-23T06:40:38;13.82;;;8.10;;
7108;SDS011;29079;41.930;25.558;2022-07-23T06:43:08;12.30;;;8.15;;
7108;SDS011;29079;41.930;25.558;2022-07-23T06:45:38;12.75;;;8.05;;
7108;SDS011;29079;41.930;25.558;2022-07-23T06:48:08;16.33;;;9.40;;
7108;SDS011;29079;41.930;25.558;2022-07-23T06:50:38;20.05;;;8.43;;
7108;SDS011;29079;41.930;25.558;2022-07-23T06:53:08;13.10;;;8.68;;
7108;SDS011;29079;41.930;25.558;2022-07-23T06:55:39;10.63;;;8.07;;
7108;SDS011;29079;41.930;25.558;2022-07-23T06:58:09;13.75;;;8.18;;
7108;SDS011;29079;41.930;25.558;2022-07-23T07:00:39;10.98;;;8.25;;
7108;SDS011;29079;41.930;25.558;2022-07-23T07:03:10;10.27;;;7.05;;
7108;SDS011;29079;41.930;25.558;2022-07-23T07:05:40;14.57;;;7.68;;
7108;SDS011;29079;41.930;25.558;2022-07-23T07:08:10;11.15;;;7.82;;
7108;SDS011;29079;41.930;25.558;2022-07-23T07:10:41;10.73;;;6.78;;
7108;SDS011;29079;41.930;25.558;2022-07-23T07:13:12;11.07;;;7.57;;
7108;SDS011;29079;41.930;25.558;2022-07-23T07:15:43;9.43;;;7.15;;
7108;SDS011;29079;41.930;25.558;2022-07-23T07:18:13;14.05;;;7.20;;
7108;SDS011;29079;41.930;25.558;2022-07-23T07:20:44;13.73;;;6.88;;
7108;SDS011;29079;41.930;25.558;2022-07-23T07:23:14;8.88;;;7.50;;
7108;SDS011;29079;41.930;25.558;2022-07-23T07:25:46;11.75;;;7.47;;
7108;SDS011;29079;41.930;25.558;2022-07-23T07:28:15;9.63;;;7.30;;
7108;SDS011;29079;41.930;25.558;2022-07-23T07:30:46;11.88;;;7.10;;
7108;SDS011;29079;41.930;25.558;2022-07-23T07:33:16;13.38;;;6.85;;
7108;SDS011;29079;41.930;25.558;2022-07-23T07:35:46;9.73;;;6.55;;
7108;SDS011;29079;41.930;25.558;2022-07-23T07:38:16;13.43;;;7.15;;
7108;SDS011;29079;41.930;25.558;2022-07-23T07:40:48;14.85;;;7.78;;
7108;SDS011;29079;41.930;25.558;2022-07-23T07:43:18;13.90;;;6.95;;
7108;SDS011;29079;41.930;25.558;2022-07-23T07:45:48;8.32;;;6.03;;
7108;SDS011;29079;41.930;25.558;2022-07-23T07:48:19;10.93;;;6.05;;
7108;SDS011;29079;41.930;25.558;2022-07-23T07:50:49;12.20;;;7.95;;
7108;SDS011;29079;41.930;25.558;2022-07-23T07:53:19;10.55;;;7.07;;
7108;SDS011;29079;41.930;25.558;2022-07-23T07:55:51;13.05;;;7.43;;
7108;SDS011;29079;41.930;25.558;2022-07-23T07:58:21;12.18;;;7.28;;
7108;SDS011;29079;41.930;25.558;2022-07-23T08:00:51;15.05;;;7.15;;
7108;SDS011;29079;41.930;25.558;2022-07-23T08:03:21;12.60;;;7.60;;
7108;SDS011;29079;41.930;25.558;2022-07-23T08:05:52;9.38;;;7.00;;
7108;SDS011;29079;41.930;25.558;2022-07-23T08:08:22;14.32;;;6.43;;
7108;SDS011;29079;41.930;25.558;2022-07-23T08:10:54;16.02;;;7.45;;
7108;SDS011;29079;41.930;25.558;2022-07-23T08:13:25;10.73;;;7.10;;
7108;SDS011;29079;41.930;25.558;2022-07-23T08:15:55;12.85;;;6.78;;
7108;SDS011;29079;41.930;25.558;2022-07-23T08:18:26;12.07;;;7.20;;
7108;SDS011;29079;41.930;25.558;2022-07-23T08:20:56;8.63;;;6.47;;
7108;SDS011;29079;41.930;25.558;2022-07-23T08:23:26;9.95;;;6.75;;
7108;SDS011;29079;41.930;25.558;2022-07-23T08:25:59;10.25;;;6.63;;
7108;SDS011;29079;41.930;25.558;2022-07-23T08:28:29;11.23;;;6.07;;
7108;SDS011;29079;41.930;25.558;2022-07-23T08:31:01;10.10;;;6.72;;
7108;SDS011;29079;41.930;25.558;2022-07-23T08:33:34;11.10;;;6.85;;
7108;SDS011;29079;41.930;25.558;2022-07-23T08:36:04;16.58;;;6.95;;
7108;SDS011;29079;41.930;25.558;2022-07-23T08:38:34;10.98;;;6.47;;
7108;SDS011;29079;41.930;25.558;2022-07-23T08:41:06;16.67;;;8.13;;
7108;SDS011;29079;41.930;25.558;2022-07-23T08:43:37;15.50;;;7.60;;
7108;SDS011;29079;41.930;25.558;2022-07-23T08:46:09;12.77;;;7.40;;
7108;SDS011;29079;41.930;25.558;2022-07-23T08:48:39;15.57;;;8.43;;
7108;SDS011;29079;41.930;25.558;2022-07-23T08:51:09;8.48;;;7.00;;
7108;SDS011;29079;41.930;25.558;2022-07-23T08:53:40;7.93;;;7.13;;
7108;SDS011;29079;41.930;25.558;2022-07-23T08:56:11;12.57;;;6.80;;
7108;SDS011;29079;41.930;25.558;2022-07-23T08:58:41;16.65;;;10.20;;
7108;SDS011;29079;41.930;25.558;2022-07-23T09:01:11;11.02;;;9.52;;
7108;SDS011;29079;41.930;25.558;2022-07-23T09:03:42;12.68;;;6.88;;
7108;SDS011;29079;41.930;25.558;2022-07-23T09:06:13;10.25;;;6.68;;
7108;SDS011;29079;41.930;25.558;2022-07-23T09:08:43;11.52;;;8.25;;
7108;SDS011;29079;41.930;25.558;2022-07-23T09:11:16;12.95;;;8.90;;
7108;SDS011;29079;41.930;25.558;2022-07-23T09:13:48;12.80;;;7.60;;
7108;SDS011;29079;41.930;25.558;2022-07-23T09:16:24;12.85;;;6.97;;
7108;SDS011;29079;41.930;25.558;2022-07-23T09:18:57;9.88;;;6.80;;
7108;SDS011;29079;41.930;25.558;2022-07-23T09:21:28;10.60;;;7.25;;
7108;SDS011;29079;41.930;25.558;2022-07-23T09:24:00;16.00;;;7.28;;
7108;SDS011;29079;41.930;25.558;2022-07-23T09:26:36;9.30;;;6.85;;
7108;SDS011;29079;41.930;25.558;2022-07-23T09:29:08;16.67;;;6.93;;
7108;SDS011;29079;41.930;25.558;2022-07-23T09:31:44;14.30;;;7.43;;
7108;SDS011;29079;41.930;25.558;2022-07-23T09:34:17;10.43;;;6.88;;
7108;SDS011;29079;41.930;25.558;2022-07-23T09:36:52;12.57;;;6.20;;
7108;SDS011;29079;41.930;25.558;2022-07-23T09:39:26;12.10;;;6.50;;
7108;SDS011;29079;41.930;25.558;2022-07-23T09:42:12;14.60;;;6.55;;
7108;SDS011;29079;41.930;25.558;2022-07-23T09:44:43;15.25;;;7.75;;
7108;SDS011;29079;41.930;25.558;2022-07-23T09:47:14;13.73;;;7.75;;
7108;SDS011;29079;41.930;25.558;2022-07-23T09:49:57;15.45;;;7.55;;
7108;SDS011;29079;41.930;25.558;2022-07-23T09:52:29;14.85;;;6.07;;
7108;SDS011;29079;41.930;25.558;2022-07-23T09:55:03;10.32;;;7.10;;
7108;SDS011;29079;41.930;25.558;2022-07-23T09:57:36;10.00;;;6.75;;
7108;SDS011;29079;41.930;25.558;2022-07-23T10:00:09;9.90;;;6.78;;
7108;SDS011;29079;41.930;25.558;2022-07-23T10:02:40;15.23;;;10.10;;
7108;SDS011;29079;41.930;25.558;2022-07-23T10:05:12;10.50;;;9.27;;
7108;SDS011;29079;41.930;25.558;2022-07-23T10:07:42;8.15;;;7.00;;
7108;SDS011;29079;41.930;25.558;2022-07-23T10:10:20;17.40;;;7.47;;
7108;SDS011;29079;41.930;25.558;2022-07-23T10:12:54;13.60;;;8.45;;
7108;SDS011;29079;41.930;25.558;2022-07-23T10:15:50;8.55;;;7.43;;
7108;SDS011;29079;41.930;25.558;2022-07-23T10:18:20;13.20;;;7.43;;
7108;SDS011;29079;41.930;25.558;2022-07-23T10:20:50;10.40;;;7.07;;
7108;SDS011;29079;41.930;25.558;2022-07-23T10:23:22;12.95;;;6.90;;
7108;SDS011;29079;41.930;25.558;2022-07-23T10:25:59;13.75;;;7.45;;
7108;SDS011;29079;41.930;25.558;2022-07-23T10:31:45;11.70;;;6.88;;
7108;SDS011;29079;41.930;25.558;2022-07-23T10:34:34;10.65;;;6.53;;
7108;SDS011;29079;41.930;25.558;2022-07-23T10:37:16;10.90;;;7.30;;
7108;SDS011;29079;41.930;25.558;2022-07-23T10:42:41;8.32;;;5.93;;
7108;SDS011;29079;41.930;25.558;2022-07-23T10:45:25;11.35;;;6.22;;
7108;SDS011;29079;41.930;25.558;2022-07-23T10:48:14;11.75;;;5.97;;
7108;SDS011;29079;41.930;25.558;2022-07-23T10:53:54;11.50;;;6.97;;
7108;SDS011;29079;41.930;25.558;2022-07-23T10:56:51;10.07;;;7.22;;
7108;SDS011;29079;41.930;25.558;2022-07-23T11:02:45;9.13;;;7.07;;
7108;SDS011;29079;41.930;25.558;2022-07-23T11:05:17;13.25;;;7.10;;
7108;SDS011;29079;41.930;25.558;2022-07-23T11:10:56;14.95;;;9.50;;
7108;SDS011;29079;41.930;25.558;2022-07-23T11:13:48;9.63;;;7.95;;
7108;SDS011;29079;41.930;25.558;2022-07-23T11:16:20;11.48;;;6.50;;
7108;SDS011;29079;41.930;25.558;2022-07-23T11:21:50;13.00;;;7.55;;
7108;SDS011;29079;41.930;25.558;2022-07-23T11:24:25;16.55;;;8.40;;
7108;SDS011;29079;41.930;25.558;2022-07-23T11:27:00;20.98;;;8.88;;
7108;SDS011;29079;41.930;25.558;2022-07-23T11:29:46;18.70;;;9.48;;
7108;SDS011;29079;41.930;25.558;2022-07-23T11:32:27;19.23;;;7.13;;
7108;SDS011;29079;41.930;25.558;2022-07-23T11:35:00;11.00;;;6.45;;
7108;SDS011;29079;41.930;25.558;2022-07-23T11:37:34;14.30;;;7.90;;
7108;SDS011;29079;41.930;25.558;2022-07-23T11:40:08;11.43;;;7.60;;
7108;SDS011;29079;41.930;25.558;2022-07-23T11:42:40;13.38;;;8.02;;
7108;SDS011;29079;41.930;25.558;2022-07-23T11:45:21;13.70;;;8.02;;
7108;SDS011;29079;41.930;25.558;2022-07-23T11:47:52;17.50;;;7.72;;
7108;SDS011;29079;41.930;25.558;2022-07-23T11:50:24;12.90;;;8.07;;
7108;SDS011;29079;41.930;25.558;2022-07-23T11:52:54;13.50;;;10.20;;
7108;SDS011;29079;41.930;25.558;2022-07-23T11:55:25;12.52;;;9.05;;
7108;SDS011;29079;41.930;25.558;2022-07-23T11:57:56;16.00;;;7.35;;
7108;SDS011;29079;41.930;25.558;2022-07-23T12:00:28;12.52;;;7.20;;
7108;SDS011;29079;41.930;25.558;2022-07-23T12:03:08;11.27;;;6.18;;
7108;SDS011;29079;41.930;25.558;2022-07-23T12:05:39;13.20;;;6.32;;
7108;SDS011;29079;41.930;25.558;2022-07-23T12:08:10;9.95;;;7.18;;
7108;SDS011;29079;41.930;25.558;2022-07-23T12:10:45;13.45;;;7.35;;
7108;SDS011;29079;41.930;25.558;2022-07-23T12:13:30;11.48;;;7.40;;
7108;SDS011;29079;41.930;25.558;2022-07-23T12:16:00;16.25;;;7.55;;
7108;SDS011;29079;41.930;25.558;2022-07-23T12:18:30;20.98;;;7.45;;
7108;SDS011;29079;41.930;25.558;2022-07-23T12:21:05;16.67;;;7.13;;
7108;SDS011;29079;41.930;25.558;2022-07-23T12:23:36;11.70;;;6.47;;
7108;SDS011;29079;41.930;25.558;2022-07-23T12:26:07;10.43;;;6.00;;
7108;SDS011;29079;41.930;25.558;2022-07-23T12:28:39;14.10;;;6.73;;
7108;SDS011;29079;41.930;25.558;2022-07-23T12:31:11;10.55;;;6.20;;
7108;SDS011;29079;41.930;25.558;2022-07-23T12:33:44;7.70;;;6.20;;
7108;SDS011;29079;41.930;25.558;2022-07-23T12:36:17;8.45;;;6.85;;
7108;SDS011;29079;41.930;25.558;2022-07-23T12:38:49;9.82;;;7.10;;
7108;SDS011;29079;41.930;25.558;2022-07-23T12:41:19;11.55;;;7.15;;
7108;SDS011;29079;41.930;25.558;2022-07-23T12:43:49;9.57;;;6.40;;
7108;SDS011;29079;41.930;25.558;2022-07-23T12:46:21;10.73;;;6.80;;
7108;SDS011;29079;41.930;25.558;2022-07-23T12:48:52;9.13;;;7.07;;
7108;SDS011;29079;41.930;25.558;2022-07-23T12:51:25;14.32;;;6.45;;
7108;SDS011;29079;41.930;25.558;2022-07-23T12:53:58;19.35;;;14.55;;
7108;SDS011;29079;41.930;25.558;2022-07-23T12:56:35;18.98;;;16.30;;
7108;SDS011;29079;41.930;25.558;2022-07-23T12:59:06;22.40;;;14.65;;
7108;SDS011;29079;41.930;25.558;2022-07-23T13:01:39;21.02;;;14.43;;
7108;SDS011;29079;41.930;25.558;2022-07-23T13:04:13;13.82;;;7.93;;
7108;SDS011;29079;41.930;25.558;2022-07-23T13:06:47;18.08;;;9.35;;
7108;SDS011;29079;41.930;25.558;2022-07-23T13:09:18;12.63;;;10.73;;
7108;SDS011;29079;41.930;25.558;2022-07-23T13:11:51;13.23;;;7.55;;
7108;SDS011;29079;41.930;25.558;2022-07-23T13:14:24;11.48;;;7.05;;
7108;SDS011;29079;41.930;25.558;2022-07-23T13:16:56;8.73;;;7.10;;
7108;SDS011;29079;41.930;25.558;2022-07-23T13:19:26;7.95;;;6.35;;
7108;SDS011;29079;41.930;25.558;2022-07-23T13:21:58;9.43;;;7.15;;
7108;SDS011;29079;41.930;25.558;2022-07-23T13:24:36;11.05;;;6.97;;
7108;SDS011;29079;41.930;25.558;2022-07-23T13:27:26;9.70;;;6.72;;
7108;SDS011;29079;41.930;25.558;2022-07-23T13:29:56;10.77;;;6.30;;
7108;SDS011;29079;41.930;25.558;2022-07-23T13:32:26;9.63;;;6.82;;
7108;SDS011;29079;41.930;25.558;2022-07-23T13:34:56;14.25;;;7.00;;
7108;SDS011;29079;41.930;25.558;2022-07-23T13:37:28;14.82;;;6.97;;
7108;SDS011;29079;41.930;25.558;2022-07-23T13:39:58;17.70;;;7.05;;
7108;SDS011;29079;41.930;25.558;2022-07-23T13:42:28;11.85;;;6.78;;
7108;SDS011;29079;41.930;25.558;2022-07-23T13:44:58;14.13;;;6.93;;
7108;SDS011;29079;41.930;25.558;2022-07-23T13:47:28;8.18;;;6.88;;
7108;SDS011;29079;41.930;25.558;2022-07-23T13:49:58;14.15;;;6.90;;
7108;SDS011;29079;41.930;25.558;2022-07-23T13:52:30;14.90;;;7.40;;
7108;SDS011;29079;41.930;25.558;2022-07-23T13:55:02;12.73;;;6.50;;
7108;SDS011;29079;41.930;25.558;2022-07-23T13:57:34;16.05;;;8.20;;
7108;SDS011;29079;41.930;25.558;2022-07-23T14:00:05;10.57;;;6.45;;
7108;SDS011;29079;41.930;25.558;2022-07-23T14:02:58;13.20;;;6.97;;
7108;SDS011;29079;41.930;25.558;2022-07-23T14:05:29;13.60;;;8.68;;
7108;SDS011;29079;41.930;25.558;2022-07-23T14:08:02;15.75;;;7.47;;
7108;SDS011;29079;41.930;25.558;2022-07-23T14:10:33;36.13;;;9.50;;
7108;SDS011;29079;41.930;25.558;2022-07-23T14:13:06;53.83;;;11.13;;
7108;SDS011;29079;41.930;25.558;2022-07-23T14:15:38;17.40;;;7.63;;
7108;SDS011;29079;41.930;25.558;2022-07-23T14:18:08;17.35;;;8.02;;
7108;SDS011;29079;41.930;25.558;2022-07-23T14:20:38;18.55;;;7.22;;
7108;SDS011;29079;41.930;25.558;2022-07-23T14:23:10;15.23;;;7.40;;
7108;SDS011;29079;41.930;25.558;2022-07-23T14:25:41;18.42;;;9.02;;
7108;SDS011;29079;41.930;25.558;2022-07-23T14:30:47;12.93;;;7.22;;
7108;SDS011;29079;41.930;25.558;2022-07-23T14:33:18;12.57;;;6.45;;
7108;SDS011;29079;41.930;25.558;2022-07-23T14:35:49;14.27;;;7.30;;
7108;SDS011;29079;41.930;25.558;2022-07-23T14:38:21;13.40;;;8.13;;
7108;SDS011;29079;41.930;25.558;2022-07-23T14:40:50;15.93;;;7.30;;
7108;SDS011;29079;41.930;25.558;2022-07-23T14:43:21;10.93;;;7.43;;
7108;SDS011;29079;41.930;25.558;2022-07-23T14:45:51;12.35;;;7.57;;
7108;SDS011;29079;41.930;25.558;2022-07-23T14:48:21;10.02;;;6.57;;
7108;SDS011;29079;41.930;25.558;2022-07-23T14:50:52;14.23;;;6.53;;
7108;SDS011;29079;41.930;25.558;2022-07-23T14:53:23;11.07;;;7.47;;
7108;SDS011;29079;41.930;25.558;2022-07-23T14:55:53;10.85;;;6.85;;
7108;SDS011;29079;41.930;25.558;2022-07-23T14:58:25;12.30;;;7.47;;
7108;SDS011;29079;41.930;25.558;2022-07-23T15:00:55;10.77;;;7.45;;
7108;SDS011;29079;41.930;25.558;2022-07-23T15:03:25;9.40;;;7.30;;
7108;SDS011;29079;41.930;25.558;2022-07-23T15:06:15;13.05;;;8.00;;
7108;SDS011;29079;41.930;25.558;2022-07-23T15:08:50;10.93;;;7.07;;
7108;SDS011;29079;41.930;25.558;2022-07-23T15:11:21;15.20;;;7.13;;
7108;SDS011;29079;41.930;25.558;2022-07-23T15:13:53;13.77;;;7.40;;
7108;SDS011;29079;41.930;25.558;2022-07-23T15:16:23;13.85;;;6.57;;
7108;SDS011;29079;41.930;25.558;2022-07-23T15:18:53;12.73;;;7.65;;
7108;SDS011;29079;41.930;25.558;2022-07-23T15:21:23;12.23;;;7.80;;
7108;SDS011;29079;41.930;25.558;2022-07-23T15:23:55;11.15;;;8.23;;
7108;SDS011;29079;41.930;25.558;2022-07-23T15:26:28;13.63;;;8.52;;